sensor_id;sensor_type;location;lat;lon;timestamp;temperature;humidity
24041;DHT22;12246;47.612;18.906;2022-08-01T00:01:26;16.10;99.90
24041;DHT22;12246;47.612;18.906;2022-08-01T00:04:18;16.00;99.90
24041;DHT22;12246;47.612;18.906;2022-08-01T00:07:10;15.90;99.90
24041;DHT22;12246;47.612;18.906;2022-08-01T00:10:08;15.80;99.90
24041;DHT22;12246;47.612;18.906;2022-08-01T00:13:01;15.80;99.90
24041;DHT22;12246;47.612;18.906;2022-08-01T00:15:54;15.70;99.90
24041;DHT22;12246;47.612;18.906;2022-08-01T00:18:46;15.70;99.90
24041;DHT22;12246;47.612;18.906;2022-08-01T00:21:38;15.60;99.90
24041;DHT22;12246;47.612;18.906;2022-08-01T00:24:43;15.70;99.90
24041;DHT22;12246;47.612;18.906;2022-08-01T00:27:35;15.60;99.90
24041;DHT22;12246;47.612;18.906;2022-08-01T00:30:28;15.60;99.90
24041;DHT22;12246;47.612;18.906;2022-08-01T00:33:21;15.60;99.90
24041;DHT22;12246;47.612;18.906;2022-08-01T00:36:13;15.50;99.90
24041;DHT22;12246;47.612;18.906;2022-08-01T00:39:05;15.70;99.90
24041;DHT22;12246;47.612;18.906;2022-08-01T00:41:57;15.80;99.90
24041;DHT22;12246;47.612;18.906;2022-08-01T00:44:51;15.80;99.90
24041;DHT22;12246;47.612;18.906;2022-08-01T00:47:43;15.80;99.90
24041;DHT22;12246;47.612;18.906;2022-08-01T00:50:35;15.80;99.90
24041;DHT22;12246;47.612;18.906;2022-08-01T00:53:28;15.80;99.90
24041;DHT22;12246;47.612;18.906;2022-08-01T00:56:40;15.90;99.90
24041;DHT22;12246;47.612;18.906;2022-08-01T00:59:33;15.80;99.90
24041;DHT22;12246;47.612;18.906;2022-08-01T01:02:27;16.00;99.90
24041;DHT22;12246;47.612;18.906;2022-08-01T01:05:19;16.10;99.90
24041;DHT22;12246;47.612;18.906;2022-08-01T01:08:22;16.10;99.90
24041;DHT22;12246;47.612;18.906;2022-08-01T01:11:26;16.20;99.90
24041;DHT22;12246;47.612;18.906;2022-08-01T01:14:30;16.10;99.90
24041;DHT22;12246;47.612;18.906;2022-08-01T01:17:32;16.20;99.90
24041;DHT22;12246;47.612;18.906;2022-08-01T01:20:51;16.20;99.90
24041;DHT22;12246;47.612;18.906;2022-08-01T01:30:06;16.20;99.90
24041;DHT22;12246;47.612;18.906;2022-08-01T01:33:02;16.20;99.90
24041;DHT22;12246;47.612;18.906;2022-08-01T01:35:59;16.20;99.90
24041;DHT22;12246;47.612;18.906;2022-08-01T01:38:53;16.20;99.90
24041;DHT22;12246;47.612;18.906;2022-08-01T01:41:46;16.10;99.90
24041;DHT22;12246;47.612;18.906;2022-08-01T01:44:40;16.20;99.90
24041;DHT22;12246;47.612;18.906;2022-08-01T01:47:37;16.10;99.90
24041;DHT22;12246;47.612;18.906;2022-08-01T01:50:34;16.10;99.90
24041;DHT22;12246;47.612;18.906;2022-08-01T01:53:28;16.10;99.90
24041;DHT22;12246;47.612;18.906;2022-08-01T01:56:23;16.10;99.90
24041;DHT22;12246;47.612;18.906;2022-08-01T01:59:21;16.10;99.90
24041;DHT22;12246;47.612;18.906;2022-08-01T02:02:17;16.20;99.90
24041;DHT22;12246;47.612;18.906;2022-08-01T02:05:11;16.20;99.90
24041;DHT22;12246;47.612;18.906;2022-08-01T02:08:05;16.20;99.90
24041;DHT22;12246;47.612;18.906;2022-08-01T02:11:01;16.30;99.90
24041;DHT22;12246;47.612;18.906;2022-08-01T02:14:16;16.30;99.90
24041;DHT22;12246;47.612;18.906;2022-08-01T02:17:16;16.30;99.90
24041;DHT22;12246;47.612;18.906;2022-08-01T02:20:09;16.30;99.90
24041;DHT22;12246;47.612;18.906;2022-08-01T02:23:11;16.30;99.90
24041;DHT22;12246;47.612;18.906;2022-08-01T02:26:08;16.30;99.90
24041;DHT22;12246;47.612;18.906;2022-08-01T02:29:05;16.30;99.90
24041;DHT22;12246;47.612;18.906;2022-08-01T02:32:00;16.30;99.90
24041;DHT22;12246;47.612;18.906;2022-08-01T02:34:57;16.30;99.90
24041;DHT22;12246;47.612;18.906;2022-08-01T02:37:54;16.20;99.90
24041;DHT22;12246;47.612;18.906;2022-08-01T02:40:50;16.20;99.90
24041;DHT22;12246;47.612;18.906;2022-08-01T02:43:47;16.20;99.90
24041;DHT22;12246;47.612;18.906;2022-08-01T02:46:50;16.20;99.90
24041;DHT22;12246;47.612;18.906;2022-08-01T02:49:45;16.20;99.90
24041;DHT22;12246;47.612;18.906;2022-08-01T02:52:48;16.10;99.90
24041;DHT22;12246;47.612;18.906;2022-08-01T02:55:42;16.00;99.90
24041;DHT22;12246;47.612;18.906;2022-08-01T02:58:37;16.00;99.90
24041;DHT22;12246;47.612;18.906;2022-08-01T03:01:32;16.10;99.90
24041;DHT22;12246;47.612;18.906;2022-08-01T03:04:27;16.00;99.90
24041;DHT22;12246;47.612;18.906;2022-08-01T03:07:20;16.00;99.90
24041;DHT22;12246;47.612;18.906;2022-08-01T03:10:27;15.90;99.90
24041;DHT22;12246;47.612;18.906;2022-08-01T03:13:21;15.80;99.90
24041;DHT22;12246;47.612;18.906;2022-08-01T03:16:15;15.70;99.90
24041;DHT22;12246;47.612;18.906;2022-08-01T03:19:10;15.70;99.90
24041;DHT22;12246;47.612;18.906;2022-08-01T03:22:06;15.80;99.90
24041;DHT22;12246;47.612;18.906;2022-08-01T03:25:01;15.90;99.90
24041;DHT22;12246;47.612;18.906;2022-08-01T03:27:59;15.80;99.90
24041;DHT22;12246;47.612;18.906;2022-08-01T03:30:54;15.80;99.90
24041;DHT22;12246;47.612;18.906;2022-08-01T03:33:46;15.90;99.90
24041;DHT22;12246;47.612;18.906;2022-08-01T03:37:01;15.80;99.90
24041;DHT22;12246;47.612;18.906;2022-08-01T03:40:02;15.90;99.90
24041;DHT22;12246;47.612;18.906;2022-08-01T03:43:01;15.90;99.90
24041;DHT22;12246;47.612;18.906;2022-08-01T03:45:56;16.00;99.90
24041;DHT22;12246;47.612;18.906;2022-08-01T03:48:55;16.30;99.90
24041;DHT22;12246;47.612;18.906;2022-08-01T03:51:51;16.90;99.90
24041;DHT22;12246;47.612;18.906;2022-08-01T03:54:48;17.60;99.90
24041;DHT22;12246;47.612;18.906;2022-08-01T03:57:42;18.30;99.90
24041;DHT22;12246;47.612;18.906;2022-08-01T04:00:36;18.90;99.90
24041;DHT22;12246;47.612;18.906;2022-08-01T04:03:30;19.30;99.90
24041;DHT22;12246;47.612;18.906;2022-08-01T04:06:22;19.90;99.90
24041;DHT22;12246;47.612;18.906;2022-08-01T04:09:15;20.50;99.90
24041;DHT22;12246;47.612;18.906;2022-08-01T04:12:07;21.10;99.90
24041;DHT22;12246;47.612;18.906;2022-08-01T04:15:04;21.30;99.90
24041;DHT22;12246;47.612;18.906;2022-08-01T04:17:57;21.60;99.90
24041;DHT22;12246;47.612;18.906;2022-08-01T04:20:49;22.00;99.90
24041;DHT22;12246;47.612;18.906;2022-08-01T04:23:43;22.40;99.90
24041;DHT22;12246;47.612;18.906;2022-08-01T04:26:37;23.00;99.90
24041;DHT22;12246;47.612;18.906;2022-08-01T04:29:32;23.70;99.90
24041;DHT22;12246;47.612;18.906;2022-08-01T04:32:27;24.30;99.90
24041;DHT22;12246;47.612;18.906;2022-08-01T04:35:24;24.70;99.90
24041;DHT22;12246;47.612;18.906;2022-08-01T04:38:37;25.10;99.90
24041;DHT22;12246;47.612;18.906;2022-08-01T04:41:30;25.60;99.90
24041;DHT22;12246;47.612;18.906;2022-08-01T04:44:24;26.20;99.90
24041;DHT22;12246;47.612;18.906;2022-08-01T04:47:24;26.90;99.90
24041;DHT22;12246;47.612;18.906;2022-08-01T04:50:17;27.80;99.30
24041;DHT22;12246;47.612;18.906;2022-08-01T04:53:17;28.50;97.80
24041;DHT22;12246;47.612;18.906;2022-08-01T04:56:09;28.90;96.30
24041;DHT22;12246;47.612;18.906;2022-08-01T04:59:05;29.10;94.80
24041;DHT22;12246;47.612;18.906;2022-08-01T05:02:17;29.20;94.30
24041;DHT22;12246;47.612;18.906;2022-08-01T05:05:12;29.30;93.40
24041;DHT22;12246;47.612;18.906;2022-08-01T05:08:04;29.20;93.60
24041;DHT22;12246;47.612;18.906;2022-08-01T05:10:58;29.20;93.10
24041;DHT22;12246;47.612;18.906;2022-08-01T05:13:50;28.90;93.10
24041;DHT22;12246;47.612;18.906;2022-08-01T05:16:44;28.80;93.30
24041;DHT22;12246;47.612;18.906;2022-08-01T05:19:39;28.90;93.20
24041;DHT22;12246;47.612;18.906;2022-08-01T05:22:31;28.60;93.30
24041;DHT22;12246;47.612;18.906;2022-08-01T05:25:23;28.40;93.60
24041;DHT22;12246;47.612;18.906;2022-08-01T05:28:36;28.30;93.70
24041;DHT22;12246;47.612;18.906;2022-08-01T05:31:28;28.30;93.60
24041;DHT22;12246;47.612;18.906;2022-08-01T05:34:20;28.20;93.60
24041;DHT22;12246;47.612;18.906;2022-08-01T05:37:13;28.10;93.80
24041;DHT22;12246;47.612;18.906;2022-08-01T05:40:05;28.20;93.90
24041;DHT22;12246;47.612;18.906;2022-08-01T05:42:58;28.20;94.50
24041;DHT22;12246;47.612;18.906;2022-08-01T05:45:50;28.20;94.20
24041;DHT22;12246;47.612;18.906;2022-08-01T05:48:42;28.10;93.70
24041;DHT22;12246;47.612;18.906;2022-08-01T05:51:35;28.30;94.10
24041;DHT22;12246;47.612;18.906;2022-08-01T05:54:27;28.40;93.50
24041;DHT22;12246;47.612;18.906;2022-08-01T05:57:20;28.50;93.40
24041;DHT22;12246;47.612;18.906;2022-08-01T06:00:13;28.40;93.10
24041;DHT22;12246;47.612;18.906;2022-08-01T06:03:07;28.40;93.40
24041;DHT22;12246;47.612;18.906;2022-08-01T06:06:00;28.30;93.10
24041;DHT22;12246;47.612;18.906;2022-08-01T06:08:52;28.40;93.00
24041;DHT22;12246;47.612;18.906;2022-08-01T06:11:44;28.60;92.50
24041;DHT22;12246;47.612;18.906;2022-08-01T06:14:37;28.80;92.90
24041;DHT22;12246;47.612;18.906;2022-08-01T06:17:29;28.70;92.40
24041;DHT22;12246;47.612;18.906;2022-08-01T06:20:21;28.60;92.20
24041;DHT22;12246;47.612;18.906;2022-08-01T06:23:13;28.40;92.50
24041;DHT22;12246;47.612;18.906;2022-08-01T06:26:23;28.20;92.50
24041;DHT22;12246;47.612;18.906;2022-08-01T06:29:15;28.50;92.70
24041;DHT22;12246;47.612;18.906;2022-08-01T06:32:08;28.60;92.70
24041;DHT22;12246;47.612;18.906;2022-08-01T06:35:15;28.60;92.60
24041;DHT22;12246;47.612;18.906;2022-08-01T06:38:07;28.40;92.30
24041;DHT22;12246;47.612;18.906;2022-08-01T06:41:00;28.40;93.00
24041;DHT22;12246;47.612;18.906;2022-08-01T06:43:52;28.60;92.80
24041;DHT22;12246;47.612;18.906;2022-08-01T06:46:44;28.60;92.30
24041;DHT22;12246;47.612;18.906;2022-08-01T06:49:36;28.80;92.20
24041;DHT22;12246;47.612;18.906;2022-08-01T06:52:29;29.00;91.50
24041;DHT22;12246;47.612;18.906;2022-08-01T06:55:21;29.10;91.40
24041;DHT22;12246;47.612;18.906;2022-08-01T06:58:13;29.00;91.90
24041;DHT22;12246;47.612;18.906;2022-08-01T07:01:06;29.10;92.00
24041;DHT22;12246;47.612;18.906;2022-08-01T07:04:02;29.30;91.10
24041;DHT22;12246;47.612;18.906;2022-08-01T07:06:55;29.50;90.60
24041;DHT22;12246;47.612;18.906;2022-08-01T07:09:47;29.50;89.30
24041;DHT22;12246;47.612;18.906;2022-08-01T07:12:42;29.90;87.20
24041;DHT22;12246;47.612;18.906;2022-08-01T07:15:35;29.70;83.60
24041;DHT22;12246;47.612;18.906;2022-08-01T07:18:27;29.40;85.40
24041;DHT22;12246;47.612;18.906;2022-08-01T07:21:19;29.30;89.30
24041;DHT22;12246;47.612;18.906;2022-08-01T07:24:31;29.50;85.40
24041;DHT22;12246;47.612;18.906;2022-08-01T07:27:26;29.40;85.10
24041;DHT22;12246;47.612;18.906;2022-08-01T07:30:18;28.90;86.00
24041;DHT22;12246;47.612;18.906;2022-08-01T07:33:11;28.30;86.30
24041;DHT22;12246;47.612;18.906;2022-08-01T07:36:03;28.20;87.70
24041;DHT22;12246;47.612;18.906;2022-08-01T07:38:59;27.90;87.80
24041;DHT22;12246;47.612;18.906;2022-08-01T07:41:52;27.80;90.30
24041;DHT22;12246;47.612;18.906;2022-08-01T07:45:00;27.70;91.00
24041;DHT22;12246;47.612;18.906;2022-08-01T07:47:52;27.50;91.20
24041;DHT22;12246;47.612;18.906;2022-08-01T07:50:45;27.50;91.80
24041;DHT22;12246;47.612;18.906;2022-08-01T07:53:37;27.50;91.10
24041;DHT22;12246;47.612;18.906;2022-08-01T07:56:29;27.40;91.10
24041;DHT22;12246;47.612;18.906;2022-08-01T07:59:22;27.10;91.30
24041;DHT22;12246;47.612;18.906;2022-08-01T08:02:17;27.00;91.40
24041;DHT22;12246;47.612;18.906;2022-08-01T08:05:09;26.70;92.00
24041;DHT22;12246;47.612;18.906;2022-08-01T08:08:05;26.60;92.30
24041;DHT22;12246;47.612;18.906;2022-08-01T08:10:57;26.40;93.00
24041;DHT22;12246;47.612;18.906;2022-08-01T08:13:50;26.20;93.80
24041;DHT22;12246;47.612;18.906;2022-08-01T08:16:43;26.20;94.50
24041;DHT22;12246;47.612;18.906;2022-08-01T08:19:35;25.90;94.50
24041;DHT22;12246;47.612;18.906;2022-08-01T08:22:30;25.80;95.40
24041;DHT22;12246;47.612;18.906;2022-08-01T08:25:22;25.80;95.10
24041;DHT22;12246;47.612;18.906;2022-08-01T08:28:17;25.70;96.20
24041;DHT22;12246;47.612;18.906;2022-08-01T08:31:10;25.40;96.10
24041;DHT22;12246;47.612;18.906;2022-08-01T08:34:22;25.30;96.30
24041;DHT22;12246;47.612;18.906;2022-08-01T08:37:14;25.20;96.80
24041;DHT22;12246;47.612;18.906;2022-08-01T08:40:07;25.20;96.10
24041;DHT22;12246;47.612;18.906;2022-08-01T08:43:00;25.20;96.90
24041;DHT22;12246;47.612;18.906;2022-08-01T08:45:52;25.30;96.00
24041;DHT22;12246;47.612;18.906;2022-08-01T08:48:51;25.40;95.70
24041;DHT22;12246;47.612;18.906;2022-08-01T08:51:47;25.60;95.50
24041;DHT22;12246;47.612;18.906;2022-08-01T08:54:41;25.60;94.40
24041;DHT22;12246;47.612;18.906;2022-08-01T08:57:34;25.50;94.40
24041;DHT22;12246;47.612;18.906;2022-08-01T09:00:27;25.50;94.00
24041;DHT22;12246;47.612;18.906;2022-08-01T09:03:19;25.40;93.90
24041;DHT22;12246;47.612;18.906;2022-08-01T09:06:12;25.30;93.40
24041;DHT22;12246;47.612;18.906;2022-08-01T09:09:05;25.40;93.70
24041;DHT22;12246;47.612;18.906;2022-08-01T09:11:58;25.40;93.60
24041;DHT22;12246;47.612;18.906;2022-08-01T09:14:50;25.40;93.50
24041;DHT22;12246;47.612;18.906;2022-08-01T09:17:45;25.30;92.90
24041;DHT22;12246;47.612;18.906;2022-08-01T09:20:37;25.20;93.50
24041;DHT22;12246;47.612;18.906;2022-08-01T09:23:35;25.10;94.30
24041;DHT22;12246;47.612;18.906;2022-08-01T09:26:44;25.20;93.60
24041;DHT22;12246;47.612;18.906;2022-08-01T09:29:36;25.40;93.80
24041;DHT22;12246;47.612;18.906;2022-08-01T09:32:32;25.60;94.50
24041;DHT22;12246;47.612;18.906;2022-08-01T09:35:33;25.90;93.70
24041;DHT22;12246;47.612;18.906;2022-08-01T09:38:34;26.00;94.40
24041;DHT22;12246;47.612;18.906;2022-08-01T09:41:31;26.20;94.70
24041;DHT22;12246;47.612;18.906;2022-08-01T09:44:41;26.80;93.80
24041;DHT22;12246;47.612;18.906;2022-08-01T09:47:45;27.40;92.80
24041;DHT22;12246;47.612;18.906;2022-08-01T09:50:43;27.90;92.80
24041;DHT22;12246;47.612;18.906;2022-08-01T09:53:47;28.40;92.10
24041;DHT22;12246;47.612;18.906;2022-08-01T09:56:43;28.70;90.80
24041;DHT22;12246;47.612;18.906;2022-08-01T09:59:39;28.70;90.70
24041;DHT22;12246;47.612;18.906;2022-08-01T10:02:49;28.70;91.20
24041;DHT22;12246;47.612;18.906;2022-08-01T10:05:42;28.90;90.20
24041;DHT22;12246;47.612;18.906;2022-08-01T10:08:47;29.20;90.50
24041;DHT22;12246;47.612;18.906;2022-08-01T10:11:43;29.30;90.10
24041;DHT22;12246;47.612;18.906;2022-08-01T10:14:38;29.20;90.20
24041;DHT22;12246;47.612;18.906;2022-08-01T10:17:33;29.20;90.60
24041;DHT22;12246;47.612;18.906;2022-08-01T10:20:42;29.10;90.60
24041;DHT22;12246;47.612;18.906;2022-08-01T10:23:36;29.00;90.10
24041;DHT22;12246;47.612;18.906;2022-08-01T10:26:33;29.40;90.80
24041;DHT22;12246;47.612;18.906;2022-08-01T10:29:26;29.50;90.20
24041;DHT22;12246;47.612;18.906;2022-08-01T10:32:39;29.50;89.90
24041;DHT22;12246;47.612;18.906;2022-08-01T10:35:41;29.40;89.50
24041;DHT22;12246;47.612;18.906;2022-08-01T10:38:39;28.80;90.30
24041;DHT22;12246;47.612;18.906;2022-08-01T10:41:33;28.50;91.20
24041;DHT22;12246;47.612;18.906;2022-08-01T10:44:28;28.40;91.00
24041;DHT22;12246;47.612;18.906;2022-08-01T10:47:27;28.30;91.90
24041;DHT22;12246;47.612;18.906;2022-08-01T10:50:44;28.20;91.90
24041;DHT22;12246;47.612;18.906;2022-08-01T10:53:47;28.00;92.70
24041;DHT22;12246;47.612;18.906;2022-08-01T10:56:48;28.10;92.80
24041;DHT22;12246;47.612;18.906;2022-08-01T10:59:50;28.20;93.00
24041;DHT22;12246;47.612;18.906;2022-08-01T11:03:00;28.30;93.40
24041;DHT22;12246;47.612;18.906;2022-08-01T11:05:53;28.20;92.50
24041;DHT22;12246;47.612;18.906;2022-08-01T11:08:53;28.20;93.50
24041;DHT22;12246;47.612;18.906;2022-08-01T11:12:12;28.20;94.20
24041;DHT22;12246;47.612;18.906;2022-08-01T11:15:17;28.40;93.60
24041;DHT22;12246;47.612;18.906;2022-08-01T11:21:22;28.40;93.10
24041;DHT22;12246;47.612;18.906;2022-08-01T11:27:42;28.10;93.30
24041;DHT22;12246;47.612;18.906;2022-08-01T11:30:35;27.90;93.40
24041;DHT22;12246;47.612;18.906;2022-08-01T11:33:50;27.80;94.20
24041;DHT22;12246;47.612;18.906;2022-08-01T11:36:46;27.70;92.40
24041;DHT22;12246;47.612;18.906;2022-08-01T11:43:18;28.30;93.10
24041;DHT22;12246;47.612;18.906;2022-08-01T11:46:10;28.60;92.50
24041;DHT22;12246;47.612;18.906;2022-08-01T11:52:29;28.30;92.20
24041;DHT22;12246;47.612;18.906;2022-08-01T11:55:21;28.30;93.00
24041;DHT22;12246;47.612;18.906;2022-08-01T11:58:26;28.30;92.60
24041;DHT22;12246;47.612;18.906;2022-08-01T12:01:22;28.00;92.50
24041;DHT22;12246;47.612;18.906;2022-08-01T12:04:14;28.10;92.90
24041;DHT22;12246;47.612;18.906;2022-08-01T12:07:15;28.00;91.90
24041;DHT22;12246;47.612;18.906;2022-08-01T12:10:16;28.10;90.90
24041;DHT22;12246;47.612;18.906;2022-08-01T12:13:08;28.10;91.50
24041;DHT22;12246;47.612;18.906;2022-08-01T12:16:07;28.20;90.40
24041;DHT22;12246;47.612;18.906;2022-08-01T12:18:59;28.10;90.70
24041;DHT22;12246;47.612;18.906;2022-08-01T12:25:10;28.00;90.40
24041;DHT22;12246;47.612;18.906;2022-08-01T12:28:03;27.80;90.30
24041;DHT22;12246;47.612;18.906;2022-08-01T12:30:56;27.70;91.20
24041;DHT22;12246;47.612;18.906;2022-08-01T12:33:48;27.70;90.20
24041;DHT22;12246;47.612;18.906;2022-08-01T12:36:41;27.80;90.30
24041;DHT22;12246;47.612;18.906;2022-08-01T12:39:34;28.00;90.70
24041;DHT22;12246;47.612;18.906;2022-08-01T12:42:31;28.00;89.60
24041;DHT22;12246;47.612;18.906;2022-08-01T12:45:30;28.10;90.10
24041;DHT22;12246;47.612;18.906;2022-08-01T12:48:24;28.50;86.00
24041;DHT22;12246;47.612;18.906;2022-08-01T12:51:16;28.80;84.20
24041;DHT22;12246;47.612;18.906;2022-08-01T12:54:09;29.10;79.60
24041;DHT22;12246;47.612;18.906;2022-08-01T12:57:02;29.20;81.00
24041;DHT22;12246;47.612;18.906;2022-08-01T13:00:06;29.20;82.50
24041;DHT22;12246;47.612;18.906;2022-08-01T13:03:09;29.50;84.20
24041;DHT22;12246;47.612;18.906;2022-08-01T13:06:10;29.40;84.50
24041;DHT22;12246;47.612;18.906;2022-08-01T13:09:06;29.30;84.20
24041;DHT22;12246;47.612;18.906;2022-08-01T13:12:08;29.40;83.00
24041;DHT22;12246;47.612;18.906;2022-08-01T13:15:26;29.40;81.60
24041;DHT22;12246;47.612;18.906;2022-08-01T13:18:27;28.90;81.90
24041;DHT22;12246;47.612;18.906;2022-08-01T13:21:21;29.00;83.80
24041;DHT22;12246;47.612;18.906;2022-08-01T13:24:14;28.90;85.70
24041;DHT22;12246;47.612;18.906;2022-08-01T13:27:06;28.80;86.50
24041;DHT22;12246;47.612;18.906;2022-08-01T13:30:17;28.70;87.70
24041;DHT22;12246;47.612;18.906;2022-08-01T13:33:09;28.70;87.60
24041;DHT22;12246;47.612;18.906;2022-08-01T13:36:02;28.90;84.10
24041;DHT22;12246;47.612;18.906;2022-08-01T13:38:54;28.90;82.50
24041;DHT22;12246;47.612;18.906;2022-08-01T13:42:05;28.70;83.90
24041;DHT22;12246;47.612;18.906;2022-08-01T13:44:58;28.60;84.10
24041;DHT22;12246;47.612;18.906;2022-08-01T13:47:50;28.20;83.60
24041;DHT22;12246;47.612;18.906;2022-08-01T13:51:02;28.30;84.00
24041;DHT22;12246;47.612;18.906;2022-08-01T13:54:12;28.10;82.80
24041;DHT22;12246;47.612;18.906;2022-08-01T13:57:05;28.20;83.70
24041;DHT22;12246;47.612;18.906;2022-08-01T13:59:57;28.40;83.30
24041;DHT22;12246;47.612;18.906;2022-08-01T14:02:51;28.20;83.70
24041;DHT22;12246;47.612;18.906;2022-08-01T14:05:44;28.10;85.10
24041;DHT22;12246;47.612;18.906;2022-08-01T14:08:36;28.10;86.20
24041;DHT22;12246;47.612;18.906;2022-08-01T14:11:28;28.00;84.90
24041;DHT22;12246;47.612;18.906;2022-08-01T14:14:28;28.00;84.90
24041;DHT22;12246;47.612;18.906;2022-08-01T14:17:20;28.00;86.30
24041;DHT22;12246;47.612;18.906;2022-08-01T14:20:12;27.90;86.00
24041;DHT22;12246;47.612;18.906;2022-08-01T14:23:05;27.90;87.30
24041;DHT22;12246;47.612;18.906;2022-08-01T14:26:00;27.80;88.10
24041;DHT22;12246;47.612;18.906;2022-08-01T14:29:02;27.80;88.60
24041;DHT22;12246;47.612;18.906;2022-08-01T14:31:55;27.70;86.80
24041;DHT22;12246;47.612;18.906;2022-08-01T14:34:47;27.60;87.70
24041;DHT22;12246;47.612;18.906;2022-08-01T14:37:39;27.50;89.50
24041;DHT22;12246;47.612;18.906;2022-08-01T14:40:32;27.60;88.80
24041;DHT22;12246;47.612;18.906;2022-08-01T14:43:24;27.80;88.20
24041;DHT22;12246;47.612;18.906;2022-08-01T14:46:24;28.10;88.00
24041;DHT22;12246;47.612;18.906;2022-08-01T14:49:16;28.10;86.40
24041;DHT22;12246;47.612;18.906;2022-08-01T14:52:09;28.00;86.90
24041;DHT22;12246;47.612;18.906;2022-08-01T14:55:01;28.00;85.80
24041;DHT22;12246;47.612;18.906;2022-08-01T14:57:54;28.10;84.70
24041;DHT22;12246;47.612;18.906;2022-08-01T15:00:46;28.00;84.40
24041;DHT22;12246;47.612;18.906;2022-08-01T15:03:38;27.80;85.40
24041;DHT22;12246;47.612;18.906;2022-08-01T15:06:31;27.50;84.80
24041;DHT22;12246;47.612;18.906;2022-08-01T15:09:23;27.30;86.10
24041;DHT22;12246;47.612;18.906;2022-08-01T15:12:15;27.30;85.70
24041;DHT22;12246;47.612;18.906;2022-08-01T15:15:08;27.50;86.30
24041;DHT22;12246;47.612;18.906;2022-08-01T15:18:00;27.60;85.80
24041;DHT22;12246;47.612;18.906;2022-08-01T15:20:52;27.60;86.50
24041;DHT22;12246;47.612;18.906;2022-08-01T15:23:44;27.60;86.40
24041;DHT22;12246;47.612;18.906;2022-08-01T15:26:37;27.50;86.20
24041;DHT22;12246;47.612;18.906;2022-08-01T15:29:29;27.30;87.00
24041;DHT22;12246;47.612;18.906;2022-08-01T15:32:22;27.20;87.70
24041;DHT22;12246;47.612;18.906;2022-08-01T15:35:14;27.20;87.60
24041;DHT22;12246;47.612;18.906;2022-08-01T15:38:06;27.30;86.90
24041;DHT22;12246;47.612;18.906;2022-08-01T15:40:59;27.30;87.10
24041;DHT22;12246;47.612;18.906;2022-08-01T15:43:51;27.40;86.00
24041;DHT22;12246;47.612;18.906;2022-08-01T15:46:48;27.50;85.70
24041;DHT22;12246;47.612;18.906;2022-08-01T15:49:41;27.50;85.60
24041;DHT22;12246;47.612;18.906;2022-08-01T15:52:33;27.50;86.60
24041;DHT22;12246;47.612;18.906;2022-08-01T15:55:25;27.50;85.80
24041;DHT22;12246;47.612;18.906;2022-08-01T15:58:18;27.50;85.60
24041;DHT22;12246;47.612;18.906;2022-08-01T16:01:13;27.40;85.50
24041;DHT22;12246;47.612;18.906;2022-08-01T16:04:06;27.40;85.30
24041;DHT22;12246;47.612;18.906;2022-08-01T16:06:59;27.40;85.80
24041;DHT22;12246;47.612;18.906;2022-08-01T16:09:51;27.50;86.40
24041;DHT22;12246;47.612;18.906;2022-08-01T16:12:43;27.40;85.90
24041;DHT22;12246;47.612;18.906;2022-08-01T16:15:37;27.30;86.30
24041;DHT22;12246;47.612;18.906;2022-08-01T16:18:30;27.30;87.00
24041;DHT22;12246;47.612;18.906;2022-08-01T16:21:22;27.20;87.10
24041;DHT22;12246;47.612;18.906;2022-08-01T16:24:16;27.10;88.10
24041;DHT22;12246;47.612;18.906;2022-08-01T16:27:08;27.10;87.50
24041;DHT22;12246;47.612;18.906;2022-08-01T16:30:00;27.10;87.70
24041;DHT22;12246;47.612;18.906;2022-08-01T16:32:52;27.10;87.60
24041;DHT22;12246;47.612;18.906;2022-08-01T16:35:52;27.10;88.20
24041;DHT22;12246;47.612;18.906;2022-08-01T16:38:45;27.00;88.50
24041;DHT22;12246;47.612;18.906;2022-08-01T16:41:37;26.90;88.90
24041;DHT22;12246;47.612;18.906;2022-08-01T16:44:29;27.00;89.80
24041;DHT22;12246;47.612;18.906;2022-08-01T16:47:25;26.90;89.40
24041;DHT22;12246;47.612;18.906;2022-08-01T16:50:17;27.00;89.20
24041;DHT22;12246;47.612;18.906;2022-08-01T16:53:20;26.80;89.30
24041;DHT22;12246;47.612;18.906;2022-08-01T16:56:12;26.80;89.50
24041;DHT22;12246;47.612;18.906;2022-08-01T16:59:05;26.80;89.20
24041;DHT22;12246;47.612;18.906;2022-08-01T17:01:59;26.70;90.00
24041;DHT22;12246;47.612;18.906;2022-08-01T17:04:53;26.70;90.30
24041;DHT22;12246;47.612;18.906;2022-08-01T17:07:46;26.60;90.10
24041;DHT22;12246;47.612;18.906;2022-08-01T17:10:38;26.60;90.30
24041;DHT22;12246;47.612;18.906;2022-08-01T17:13:30;26.50;90.50
24041;DHT22;12246;47.612;18.906;2022-08-01T17:16:24;26.50;90.50
24041;DHT22;12246;47.612;18.906;2022-08-01T17:19:16;26.50;90.70
24041;DHT22;12246;47.612;18.906;2022-08-01T17:22:08;26.40;90.90
24041;DHT22;12246;47.612;18.906;2022-08-01T17:25:01;26.30;91.20
24041;DHT22;12246;47.612;18.906;2022-08-01T17:27:53;26.20;91.40
24041;DHT22;12246;47.612;18.906;2022-08-01T17:30:47;26.10;91.60
24041;DHT22;12246;47.612;18.906;2022-08-01T17:33:39;26.10;91.60
24041;DHT22;12246;47.612;18.906;2022-08-01T17:36:37;26.10;91.80
24041;DHT22;12246;47.612;18.906;2022-08-01T17:39:29;26.10;91.90
24041;DHT22;12246;47.612;18.906;2022-08-01T17:42:30;26.00;92.30
24041;DHT22;12246;47.612;18.906;2022-08-01T17:45:22;25.90;92.30
24041;DHT22;12246;47.612;18.906;2022-08-01T17:48:19;25.90;92.50
24041;DHT22;12246;47.612;18.906;2022-08-01T17:51:12;25.80;92.90
24041;DHT22;12246;47.612;18.906;2022-08-01T17:54:04;25.80;93.00
24041;DHT22;12246;47.612;18.906;2022-08-01T17:56:56;25.90;93.20
24041;DHT22;12246;47.612;18.906;2022-08-01T17:59:49;25.80;93.20
24041;DHT22;12246;47.612;18.906;2022-08-01T18:02:44;25.80;93.40
24041;DHT22;12246;47.612;18.906;2022-08-01T18:05:36;25.70;93.50
24041;DHT22;12246;47.612;18.906;2022-08-01T18:08:29;25.70;93.80
24041;DHT22;12246;47.612;18.906;2022-08-01T18:11:22;25.70;93.90
24041;DHT22;12246;47.612;18.906;2022-08-01T18:14:18;25.60;94.10
24041;DHT22;12246;47.612;18.906;2022-08-01T18:17:31;25.60;94.20
24041;DHT22;12246;47.612;18.906;2022-08-01T18:20:24;25.50;94.60
24041;DHT22;12246;47.612;18.906;2022-08-01T18:23:16;25.50;94.70
24041;DHT22;12246;47.612;18.906;2022-08-01T18:26:09;25.30;95.00
24041;DHT22;12246;47.612;18.906;2022-08-01T18:29:01;25.30;95.10
24041;DHT22;12246;47.612;18.906;2022-08-01T18:31:53;25.20;95.30
24041;DHT22;12246;47.612;18.906;2022-08-01T18:34:47;25.00;95.70